Time;durP1;ratioP1;P1;durP2;ratioP2;P2;SDS_P1;SDS_P2;PMS_P1;PMS_P2;Temp;Humidity;BMP_temperature;BMP_pressure;BME280_temperature;BME280_humidity;BME280_pressure;Samples;Min_cycle;Max_cycle;Signal;HPM_P1;HPM_P2
2023/09/03 17:56:30;;;;;;;;;3.50;3.50;;;;;38.70;28.39;101823.44;5155031;27;45318;-64
2023/09/03 17:58:55;;;;;;;;;5.50;4.00;;;;;39.03;28.37;101825.06;5137069;27;45326;-63
2023/09/03 18:01:20;;;;;;;;;0.25;0.25;;;;;39.07;28.08;101823.50;5136397;27;45365;-65
2023/09/03 18:03:46;;;;;;;;;4.00;4.00;;;;;39.21;27.92;101834.34;5137120;27;45462;-63
2023/09/03 18:06:12;;;;;;;;;3.00;3.00;;;;;39.19;27.87;101819.69;5137080;27;46207;-64
2023/09/03 18:08:38;;;;;;;;;4.50;4.50;;;;;39.37;27.77;101823.59;5137534;27;45394;-63
2023/09/03 18:11:18;;;;;;;;;4.00;3.00;;;;;39.18;28.00;101837.63;5137848;27;45178;-64
2023/09/03 18:13:44;;;;;;;;;4.50;4.50;;;;;39.20;27.39;101823.34;5136088;27;46233;-64
2023/09/03 18:16:13;;;;;;;;;5.00;5.00;;;;;39.12;27.78;101832.94;5135961;27;46162;-64
2023/09/03 18:18:39;;;;;;;;;4.33;3.33;;;;;39.02;28.32;101827.00;5137595;27;45268;-64
2023/09/03 18:21:05;;;;;;;;;3.75;3.75;;;;;38.95;27.90;101824.28;5137388;27;45283;-64
2023/09/03 18:23:30;;;;;;;;;5.00;4.00;;;;;38.92;28.50;101835.91;5137559;27;45217;-65
2023/09/03 18:25:55;;;;;;;;;3.50;3.50;;;;;38.86;28.41;101830.38;5137112;27;47001;-63
2023/09/03 18:28:20;;;;;;;;;7.00;5.50;;;;;38.81;29.26;101835.81;5136785;27;58181;-63
2023/09/03 18:30:46;;;;;;;;;3.33;3.33;;;;;38.75;29.33;101828.34;5136227;27;49501;-62
2023/09/03 18:33:11;;;;;;;;;5.00;5.00;;;;;38.69;29.44;101832.06;5136740;27;45409;-62
2023/09/03 18:35:37;;;;;;;;;6.00;6.00;;;;;38.61;29.37;101841.63;5136690;27;45908;-64
2023/09/03 18:38:02;;;;;;;;;5.50;5.00;;;;;38.69;29.54;101848.88;5135935;27;45469;-64
2023/09/03 18:40:29;;;;;;;;;5.75;4.75;;;;;38.69;29.61;101851.69;5136773;27;45319;-63
2023/09/03 18:42:56;;;;;;;;;8.00;6.00;;;;;38.56;30.06;101847.91;5135679;27;45365;-63
2023/09/03 18:45:22;;;;;;;;;4.50;4.00;;;;;38.46;29.79;101853.13;5135600;27;47238;-64
2023/09/03 18:47:47;;;;;;;;;6.25;5.00;;;;;38.39;30.25;101855.13;5136272;27;45298;-62
2023/09/03 18:50:13;;;;;;;;;6.50;4.75;;;;;38.39;30.13;101852.31;5136658;27;45388;-63
2023/09/03 18:52:38;;;;;;;;;5.00;5.00;;;;;38.37;30.05;101839.63;5135659;27;45395;-63
2023/09/03 18:55:04;;;;;;;;;7.00;5.00;;;;;38.29;30.09;101856.69;5136095;27;51087;-62
2023/09/03 18:57:30;;;;;;;;;4.00;4.00;;;;;38.28;30.37;101866.22;5121802;27;45340;-64
2023/09/03 18:59:56;;;;;;;;;4.75;4.00;;;;;38.24;30.50;101866.66;5122536;27;45309;-63
2023/09/03 19:02:21;;;;;;;;;4.00;4.00;;;;;38.19;30.95;101866.50;5122285;27;45485;-63
2023/09/03 19:04:47;;;;;;;;;4.33;4.33;;;;;38.12;30.21;101865.66;5122453;27;45427;-63
2023/09/03 19:07:12;;;;;;;;;4.00;4.00;;;;;38.02;30.82;101870.00;5122621;27;45354;-63
2023/09/03 19:09:38;;;;;;;;;3.75;3.75;;;;;37.98;30.62;101879.94;5122704;27;45336;-63
2023/09/03 19:12:04;;;;;;;;;6.50;5.50;;;;;38.01;30.92;101882.28;5122389;27;45482;-62
2023/09/03 19:14:30;;;;;;;;;7.50;6.50;;;;;37.99;30.73;101879.72;5122496;27;45413;-64
2023/09/03 19:16:55;;;;;;;;;7.25;7.25;;;;;38.03;30.56;101886.56;5122033;27;46260;-64
2023/09/03 19:19:20;;;;;;;;;4.00;4.00;;;;;37.75;31.21;101870.16;5122461;27;48726;-63
2023/09/03 19:21:45;;;;;;;;;8.00;4.50;;;;;37.80;30.99;101875.06;5108503;27;53854;-63
2023/09/03 19:24:11;;;;;;;;;5.50;4.50;;;;;37.77;31.20;101887.56;5121849;27;55875;-63
2023/09/03 19:26:36;;;;;;;;;3.00;3.00;;;;;37.65;31.40;101889.34;5121944;27;45372;-64
2023/09/03 19:29:02;;;;;;;;;4.00;4.00;;;;;37.56;31.54;101892.56;5121207;27;45227;-64
2023/09/03 19:31:27;;;;;;;;;5.00;5.00;;;;;37.52;31.17;101885.72;5121488;27;45348;-63
2023/09/03 19:33:53;;;;;;;;;5.50;4.00;;;;;37.45;31.43;101892.19;5121391;27;45335;-63
2023/09/03 19:36:18;;;;;;;;;5.75;5.75;;;;;37.50;31.67;101897.13;5121150;27;57343;-63
2023/09/03 19:38:43;;;;;;;;;6.00;6.00;;;;;37.42;31.60;101900.16;5121182;27;45307;-63
2023/09/03 19:41:10;;;;;;;;;4.25;4.25;;;;;37.44;31.55;101893.25;5121492;27;46684;-64
2023/09/03 19:43:35;;;;;;;;;5.00;5.00;;;;;37.45;31.61;101899.72;5121348;27;46313;-63
2023/09/03 19:46:01;;;;;;;;;6.75;6.75;;;;;37.44;31.71;101903.56;5120333;27;45639;-63
2023/09/03 19:48:30;;;;;;;;;6.00;6.00;;;;;37.47;31.73;101905.94;5121309;27;45481;-63
2023/09/03 19:50:57;;;;;;;;;6.00;6.00;;;;;37.35;31.95;101897.34;5121377;27;45443;-63
2023/09/03 19:53:23;;;;;;;;;5.25;4.75;;;;;37.39;31.54;101898.66;5120887;27;46998;-64
2023/09/03 19:55:48;;;;;;;;;5.00;4.50;;;;;37.29;31.94;101903.84;5120682;27;45445;-63
2023/09/03 19:58:14;;;;;;;;;6.00;5.75;;;;;37.27;32.33;101899.53;5121122;27;45319;-63
2023/09/03 20:00:40;;;;;;;;;6.00;4.25;;;;;37.26;31.97;101903.44;5121330;27;45404;-63
2023/09/03 20:03:07;;;;;;;;;6.50;6.50;;;;;37.17;32.49;101891.63;5121477;27;45990;-63
2023/09/03 20:05:33;;;;;;;;;4.00;4.00;;;;;37.16;32.47;101900.22;5121495;27;45402;-63
2023/09/03 20:07:58;;;;;;;;;5.25;5.25;;;;;37.13;32.60;101909.88;5120464;27;45375;-63
2023/09/03 20:10:24;;;;;;;;;4.00;4.00;;;;;37.09;32.61;101906.63;5121587;27;45312;-63
2023/09/03 20:12:49;;;;;;;;;6.00;5.00;;;;;36.99;32.87;101906.25;5121403;27;45572;-63
2023/09/03 20:15:15;;;;;;;;;4.75;4.75;;;;;36.95;33.38;101906.88;5121296;27;45758;-63
2023/09/03 20:17:40;;;;;;;;;5.00;5.00;;;;;36.93;33.06;101912.66;5121547;27;45693;-62
2023/09/03 20:20:06;;;;;;;;;5.75;4.00;;;;;36.84;33.16;101911.16;5121499;27;45307;-63
2023/09/03 20:22:32;;;;;;;;;5.25;5.25;;;;;36.81;33.17;101910.75;5121367;27;45257;-63
2023/09/03 20:24:57;;;;;;;;;6.75;6.75;;;;;36.75;33.18;101904.94;5121222;27;45261;-63
2023/09/03 20:27:23;;;;;;;;;6.25;5.50;;;;;36.70;33.25;101901.94;5121455;27;45520;-62
2023/09/03 20:29:49;;;;;;;;;5.00;5.00;;;;;36.75;32.87;101909.66;5121256;27;45377;-64
2023/09/03 20:32:14;;;;;;;;;5.50;5.50;;;;;36.65;33.45;101901.69;5120542;27;45420;-62
2023/09/03 20:34:42;;;;;;;;;4.00;3.50;;;;;36.68;33.31;101908.81;5121412;27;45293;-62
2023/09/03 20:37:08;;;;;;;;;4.00;2.50;;;;;36.65;33.50;101900.84;5121484;27;45294;-63
2023/09/03 20:39:34;;;;;;;;;6.25;6.25;;;;;36.59;33.60;101904.47;5120954;27;45301;-63
2023/09/03 20:41:59;;;;;;;;;3.00;3.00;;;;;36.66;33.71;101913.72;5119536;27;46048;-65
2023/09/03 20:44:24;;;;;;;;;6.75;4.75;;;;;36.58;33.97;101905.56;5120960;27;45283;-55
2023/09/03 20:46:52;;;;;;;;;5.00;5.00;;;;;36.57;33.62;101910.28;5120743;27;45383;-54
2023/09/03 20:49:17;;;;;;;;;3.75;3.75;;;;;36.64;33.38;101918.66;5119240;27;45440;-54
2023/09/03 20:51:43;;;;;;;;;4.75;4.75;;;;;36.56;33.58;101922.53;5120498;27;45230;-54
2023/09/03 20:54:08;;;;;;;;;4.25;4.25;;;;;36.54;33.93;101921.00;5120447;27;45379;-52
2023/09/03 20:56:34;;;;;;;;;8.00;4.25;;;;;36.57;33.81;101929.84;5119058;27;45428;-53
2023/09/03 20:58:59;;;;;;;;;4.75;4.75;;;;;36.54;33.65;101929.41;5119504;27;46162;-54
2023/09/03 21:01:24;;;;;;;;;8.50;5.00;;;;;36.63;33.56;101926.19;5120475;27;45257;-53
2023/09/03 21:03:50;;;;;;;;;4.75;4.75;;;;;36.67;33.86;101921.03;5120661;27;45307;-49
2023/09/03 21:06:15;;;;;;;;;5.75;5.75;;;;;36.55;33.96;101939.50;5120875;27;45324;-52
2023/09/03 21:08:40;;;;;;;;;4.75;4.75;;;;;36.40;34.08;101920.16;5120726;27;45443;-51
